Список аэропортов
Фактическая погода:

21 апреля, 20:00
Температура: +19°C (+18.1*)
Ветер: восточный 10 м/с
Давление: *759 мм
Без существ. явл.
Время (МСК)Темп. СВетерВлажностьДавлениеОблачностьОсадки
15:00+19В, 10 м/с45%1017 гПаоблачно
16:00+19В, 11 м/с43%1016 гПаоблачно
17:00+19В, 12 м/с40%1015 гПаоблачно
18:00+19В, 12 м/с44%1015 гПаоблачно
19:00+18В, 11 м/с46%1015 гПаоблачно
20:00+18В, 10 м/с48%1015 гПаоблачно
21:00+18В, 9 м/с50%1014 гПаоблачно
22:00+18СВ, 8 м/с52%1014 гПаоблачно
23:00+17В, 8 м/с56%1014 гПаоблачно
22 апреля
00:00+17СВ, 7 м/с55%1014 гПаоблачно
01:00+17СВ, 7 м/с54%1013 гПаоблачно
02:00+17В, 7 м/с58%1012 гПаоблачно
03:00+16В, 8 м/с62%1012 гПаоблачно
04:00+17СВ, 7 м/с60%1011 гПаоблачно
05:00+19СВ, 10 м/с46%1010 гПаоблачно
06:00+19СВ, 10 м/с42%1009 гПаоблачно
07:00+18СВ, 10 м/с41%1008 гПаясно
08:00+18СВ, 9 м/с43%1008 гПаясно
09:00+18СВ, 9 м/с45%1007 гПаясно
10:00+19СВ, 9 м/с41%1006 гПаясно
11:00+20СВ, 11 м/с36%1006 гПамалооблачно
12:00+21СВ, 13 м/с32%1005 гПас прояснениями
13:00+21СВ, 13 м/с32%1005 гПаясно
14:00+21СВ, 13 м/с29%1004 гПаясно
15:00+21СВ, 13 м/с29%1004 гПамалооблачно
16:00+21СВ, 15 м/с28%1004 гПаоблачно
17:00+21СВ, 11 м/с32%1003 гПаоблачно
18:00+20В, 11 м/с38%1002 гПаоблачносл. дождь
19:00+21СВ, 13 м/с35%1001 гПаоблачносл. дождь
20:00+21СВ, 12 м/с36%1001 гПаоблачнодождь
21:00+20СВ, 11 м/с43%1001 гПаоблачнодождь
22:00+19СВ, 11 м/с48%1001 гПаоблачнодождь
23:00+18СВ, 9 м/с57%1002 гПаоблачнодождь
23 апреля
00:00+17СВ, 10 м/с62%1002 гПаоблачносл. дождь
01:00+16СВ, 10 м/с64%1002 гПаоблачнодождь
02:00+16СВ, 8 м/с63%1002 гПаоблачносл. дождь
03:00+16СВ, 6 м/с67%1001 гПаоблачно
04:00+16СВ, 5 м/с68%1000 гПаоблачно
05:00+17СВ, 7 м/с60%1000 гПаоблачно
06:00+17СВ, 7 м/с59%999 гПаоблачно
07:00+17СВ, 10 м/с59%1000 гПаоблачно
08:00+16СВ, 9 м/с64%1000 гПаоблачно
09:00+16СВ, 6 м/с68%1000 гПаоблачнодождь
10:00+16СВ, 6 м/с72%1000 гПаоблачнодождь
11:00+16В, 9 м/с73%1000 гПаоблачносл. дождь
12:00+16СВ, 10 м/с74%1000 гПаоблачносл. дождь
13:00+16СВ, 10 м/с75%1000 гПаоблачнодождь
14:00+16СВ, 11 м/с77%1000 гПаоблачнодождь
15:00+16СВ, 10 м/с80%1000 гПаоблачно